sensor_id;sensor_type;location;lat;lon;timestamp;pressure;altitude;pressure_sealevel;temperature;humidity
15260;BME280;34462;51.368;12.364;2023-08-21T00:02:13;21448.19;;;-141.84;70.85
15260;BME280;34462;51.368;12.364;2023-08-21T00:04:41;21403.47;;;-141.84;70.55
15260;BME280;34462;51.368;12.364;2023-08-21T00:07:10;21431.94;;;-141.84;70.38
15260;BME280;34462;51.368;12.364;2023-08-21T00:09:38;21431.94;;;-141.84;70.32
15260;BME280;34462;51.368;12.364;2023-08-21T00:12:09;21429.91;;;-141.84;70.16
15260;BME280;34462;51.368;12.364;2023-08-21T00:14:37;21427.88;;;-141.84;70.53
15260;BME280;34462;51.368;12.364;2023-08-21T00:17:05;21454.28;;;-141.84;69.97
15260;BME280;34462;51.368;12.364;2023-08-21T00:19:35;21448.19;;;-141.84;70.50
15260;BME280;34462;51.368;12.364;2023-08-21T00:22:03;21440.06;;;-141.84;70.32
15260;BME280;34462;51.368;12.364;2023-08-21T00:24:32;21421.75;;;-141.84;70.91
15260;BME280;34462;51.368;12.364;2023-08-21T00:27:00;21458.38;;;-141.84;70.67
15260;BME280;34462;51.368;12.364;2023-08-21T00:29:32;21387.19;;;-141.84;71.22
15260;BME280;34462;51.368;12.364;2023-08-21T00:32:00;21405.50;;;-141.84;71.09
15260;BME280;34462;51.368;12.364;2023-08-21T00:34:29;21401.44;;;-141.84;70.25
15260;BME280;34462;51.368;12.364;2023-08-21T00:36:57;21411.59;;;-141.84;70.85
15260;BME280;34462;51.368;12.364;2023-08-21T00:39:26;21421.75;;;-141.84;70.43
15260;BME280;34462;51.368;12.364;2023-08-21T00:41:54;21397.38;;;-141.84;71.51
15260;BME280;34462;51.368;12.364;2023-08-21T00:44:23;21438.03;;;-141.84;71.40
15260;BME280;34462;51.368;12.364;2023-08-21T00:46:53;21375.00;;;-141.84;71.61
15260;BME280;34462;51.368;12.364;2023-08-21T00:49:22;21399.41;;;-141.84;72.04
15260;BME280;34462;51.368;12.364;2023-08-21T00:51:51;21320.09;;;-141.84;72.73
15260;BME280;34462;51.368;12.364;2023-08-21T00:54:20;21314.00;;;-141.84;73.05
15260;BME280;34462;51.368;12.364;2023-08-21T00:56:48;21291.66;;;-141.84;73.25
15260;BME280;34462;51.368;12.364;2023-08-21T00:59:19;21309.94;;;-141.84;73.66
15260;BME280;34462;51.368;12.364;2023-08-21T01:01:48;21322.13;;;-141.84;73.87
15260;BME280;34462;51.368;12.364;2023-08-21T01:04:18;21289.59;;;-141.84;74.22
15260;BME280;34462;51.368;12.364;2023-08-21T01:06:47;21234.72;;;-141.84;74.92
15260;BME280;34462;51.368;12.364;2023-08-21T01:09:22;21230.66;;;-141.84;75.70
15260;BME280;34462;51.368;12.364;2023-08-21T01:12:02;21236.75;;;-141.84;75.77
15260;BME280;34462;51.368;12.364;2023-08-21T01:14:39;21218.44;;;-141.84;75.74
15260;BME280;34462;51.368;12.364;2023-08-21T01:17:11;21267.25;;;-141.84;74.52
15260;BME280;34462;51.368;12.364;2023-08-21T01:19:46;21263.19;;;-141.84;73.72
15260;BME280;34462;51.368;12.364;2023-08-21T01:22:16;21253.00;;;-141.84;73.83
15260;BME280;34462;51.368;12.364;2023-08-21T01:24:46;21244.88;;;-141.84;74.37
15260;BME280;34462;51.368;12.364;2023-08-21T01:27:14;21261.16;;;-141.84;74.53
15260;BME280;34462;51.368;12.364;2023-08-21T01:29:43;21222.53;;;-141.84;74.33
15260;BME280;34462;51.368;12.364;2023-08-21T01:32:20;21226.59;;;-141.84;74.01
15260;BME280;34462;51.368;12.364;2023-08-21T01:34:50;21269.28;;;-141.84;74.59
15260;BME280;34462;51.368;12.364;2023-08-21T01:37:20;21206.25;;;-141.84;75.21
15260;BME280;34462;51.368;12.364;2023-08-21T01:39:50;21232.69;;;-141.84;75.84
15260;BME280;34462;51.368;12.364;2023-08-21T01:42:19;21169.66;;;-141.84;76.27
15260;BME280;34462;51.368;12.364;2023-08-21T01:44:47;21181.84;;;-141.84;76.25
15260;BME280;34462;51.368;12.364;2023-08-21T01:47:16;21244.88;;;-141.84;73.22
15260;BME280;34462;51.368;12.364;2023-08-21T01:49:44;21293.69;;;-141.84;72.26
15260;BME280;34462;51.368;12.364;2023-08-21T01:52:13;21316.03;;;-141.84;72.19
15260;BME280;34462;51.368;12.364;2023-08-21T01:54:41;21281.47;;;-141.84;73.22
15260;BME280;34462;51.368;12.364;2023-08-21T01:57:11;21261.16;;;-141.84;74.52
15260;BME280;34462;51.368;12.364;2023-08-21T01:59:40;21236.75;;;-141.84;75.29
15260;BME280;34462;51.368;12.364;2023-08-21T02:02:08;21248.94;;;-141.84;75.15
15260;BME280;34462;51.368;12.364;2023-08-21T02:04:37;21173.72;;;-141.84;75.50
15260;BME280;34462;51.368;12.364;2023-08-21T02:07:05;21187.97;;;-141.84;76.15
15260;BME280;34462;51.368;12.364;2023-08-21T02:09:34;21187.97;;;-141.84;76.63
15260;BME280;34462;51.368;12.364;2023-08-21T02:12:03;21196.09;;;-141.84;76.42
15260;BME280;34462;51.368;12.364;2023-08-21T02:14:33;21175.75;;;-141.84;77.01
15260;BME280;34462;51.368;12.364;2023-08-21T02:17:02;21175.75;;;-141.84;76.82
15260;BME280;34462;51.368;12.364;2023-08-21T02:19:30;21161.53;;;-141.84;77.00
15260;BME280;34462;51.368;12.364;2023-08-21T02:21:59;21139.16;;;-141.84;77.41
15260;BME280;34462;51.368;12.364;2023-08-21T02:24:27;21124.94;;;-141.84;77.95
15260;BME280;34462;51.368;12.364;2023-08-21T02:26:56;21106.63;;;-141.84;78.18
15260;BME280;34462;51.368;12.364;2023-08-21T02:29:24;21096.47;;;-141.84;78.01
15260;BME280;34462;51.368;12.364;2023-08-21T02:31:54;21110.69;;;-141.84;77.78
15260;BME280;34462;51.368;12.364;2023-08-21T02:34:23;21084.28;;;-141.84;78.18
15260;BME280;34462;51.368;12.364;2023-08-21T02:36:51;21072.06;;;-141.84;78.71
15260;BME280;34462;51.368;12.364;2023-08-21T02:39:20;21114.75;;;-141.84;79.14
15260;BME280;34462;51.368;12.364;2023-08-21T02:41:48;21065.97;;;-141.84;79.48
15260;BME280;34462;51.368;12.364;2023-08-21T02:44:16;21021.25;;;-141.84;80.16
15260;BME280;34462;51.368;12.364;2023-08-21T02:46:45;21007.00;;;-141.84;79.91
15260;BME280;34462;51.368;12.364;2023-08-21T02:49:15;21035.47;;;-141.84;79.45
15260;BME280;34462;51.368;12.364;2023-08-21T02:51:43;21061.91;;;-141.84;79.10
15260;BME280;34462;51.368;12.364;2023-08-21T02:54:12;21039.53;;;-141.84;79.47
15260;BME280;34462;51.368;12.364;2023-08-21T02:56:40;21029.38;;;-141.84;79.57
15260;BME280;34462;51.368;12.364;2023-08-21T02:59:09;21035.47;;;-141.84;79.34
15260;BME280;34462;51.368;12.364;2023-08-21T03:01:37;21013.13;;;-141.84;79.79
15260;BME280;34462;51.368;12.364;2023-08-21T03:04:06;20980.59;;;-141.84;79.82
15260;BME280;34462;51.368;12.364;2023-08-21T03:06:35;21015.16;;;-141.84;80.33
15260;BME280;34462;51.368;12.364;2023-08-21T03:09:04;21015.16;;;-141.84;80.71
15260;BME280;34462;51.368;12.364;2023-08-21T03:11:32;20992.78;;;-141.84;80.50
15260;BME280;34462;51.368;12.364;2023-08-21T03:14:01;20974.50;;;-141.84;80.67
15260;BME280;34462;51.368;12.364;2023-08-21T03:16:29;20978.56;;;-141.84;80.99
15260;BME280;34462;51.368;12.364;2023-08-21T03:18:59;21057.84;;;-141.84;78.70
15260;BME280;34462;51.368;12.364;2023-08-21T03:21:28;21092.41;;;-141.84;77.62
15260;BME280;34462;51.368;12.364;2023-08-21T03:23:58;21151.34;;;-141.84;76.12
15260;BME280;34462;51.368;12.364;2023-08-21T03:26:31;21110.69;;;-141.84;75.81
15260;BME280;34462;51.368;12.364;2023-08-21T03:28:59;21070.03;;;-141.84;76.09
15260;BME280;34462;51.368;12.364;2023-08-21T03:31:28;21194.06;;;-141.84;76.19
15260;BME280;34462;51.368;12.364;2023-08-21T03:33:57;21102.56;;;-141.84;75.26
15260;BME280;34462;51.368;12.364;2023-08-21T03:36:25;21100.53;;;-141.84;75.59
15260;BME280;34462;51.368;12.364;2023-08-21T03:39:00;21078.16;;;-141.84;75.41
15260;BME280;34462;51.368;12.364;2023-08-21T03:41:29;21153.41;;;-141.84;74.75
15260;BME280;34462;51.368;12.364;2023-08-21T03:43:57;21086.31;;;-141.84;75.58
15260;BME280;34462;51.368;12.364;2023-08-21T03:46:26;21057.84;;;-141.84;75.56
15260;BME280;34462;51.368;12.364;2023-08-21T03:48:54;21096.47;;;-141.84;76.39
15260;BME280;34462;51.368;12.364;2023-08-21T03:51:23;21027.34;;;-141.84;76.35
15260;BME280;34462;51.368;12.364;2023-08-21T03:53:51;21049.72;;;-141.84;76.31
15260;BME280;34462;51.368;12.364;2023-08-21T03:56:21;21068.00;;;-141.84;76.85
15260;BME280;34462;51.368;12.364;2023-08-21T03:58:50;21035.47;;;-141.84;77.36
15260;BME280;34462;51.368;12.364;2023-08-21T04:01:19;21023.28;;;-141.84;77.62
15260;BME280;34462;51.368;12.364;2023-08-21T04:03:47;21045.63;;;-141.84;78.11
15260;BME280;34462;51.368;12.364;2023-08-21T04:06:16;21033.44;;;-141.84;78.35
15260;BME280;34462;51.368;12.364;2023-08-21T04:08:45;21037.50;;;-141.84;77.49
15260;BME280;34462;51.368;12.364;2023-08-21T04:11:13;21047.69;;;-141.84;78.02
15260;BME280;34462;51.368;12.364;2023-08-21T04:13:43;21072.06;;;-141.84;77.34
15260;BME280;34462;51.368;12.364;2023-08-21T04:16:12;21013.13;;;-141.84;78.02
15260;BME280;34462;51.368;12.364;2023-08-21T04:18:40;20988.72;;;-141.84;78.18
15260;BME280;34462;51.368;12.364;2023-08-21T04:21:09;21047.69;;;-141.84;77.88
15260;BME280;34462;51.368;12.364;2023-08-21T04:23:38;21076.13;;;-141.84;77.64
15260;BME280;34462;51.368;12.364;2023-08-21T04:26:06;21047.69;;;-141.84;77.76
15260;BME280;34462;51.368;12.364;2023-08-21T04:28:36;21114.75;;;-141.84;77.41
15260;BME280;34462;51.368;12.364;2023-08-21T04:31:06;21110.69;;;-141.84;77.22
15260;BME280;34462;51.368;12.364;2023-08-21T04:33:35;21049.72;;;-141.84;77.88
15260;BME280;34462;51.368;12.364;2023-08-21T04:36:04;21098.50;;;-141.84;77.88
15260;BME280;34462;51.368;12.364;2023-08-21T04:38:33;21053.78;;;-141.84;78.18
15260;BME280;34462;51.368;12.364;2023-08-21T04:41:08;21070.03;;;-141.84;78.54
15260;BME280;34462;51.368;12.364;2023-08-21T04:43:36;21076.13;;;-141.84;78.68
15260;BME280;34462;51.368;12.364;2023-08-21T04:46:06;21092.41;;;-141.84;78.17
15260;BME280;34462;51.368;12.364;2023-08-21T04:48:35;21104.59;;;-141.84;78.89
15260;BME280;34462;51.368;12.364;2023-08-21T04:51:03;21106.63;;;-141.84;78.82
15260;BME280;34462;51.368;12.364;2023-08-21T04:53:32;21086.31;;;-141.84;79.02
15260;BME280;34462;51.368;12.364;2023-08-21T04:56:00;21072.06;;;-141.84;78.93
15260;BME280;34462;51.368;12.364;2023-08-21T04:58:29;21061.91;;;-141.84;79.64
15260;BME280;34462;51.368;12.364;2023-08-21T05:00:57;21017.19;;;-141.84;80.27
15260;BME280;34462;51.368;12.364;2023-08-21T05:03:28;21025.31;;;-141.84;81.41
15260;BME280;34462;51.368;12.364;2023-08-21T05:05:57;21017.19;;;-141.84;81.03
15260;BME280;34462;51.368;12.364;2023-08-21T05:08:26;21076.13;;;-141.84;80.21
15260;BME280;34462;51.368;12.364;2023-08-21T05:10:55;21086.31;;;-141.84;79.50
15260;BME280;34462;51.368;12.364;2023-08-21T05:13:24;21151.34;;;-141.84;78.66
15260;BME280;34462;51.368;12.364;2023-08-21T05:15:53;21131.03;;;-141.84;78.87
15260;BME280;34462;51.368;12.364;2023-08-21T05:18:22;21143.22;;;-141.84;78.77
15260;BME280;34462;51.368;12.364;2023-08-21T05:20:55;21212.34;;;-141.84;77.90
15260;BME280;34462;51.368;12.364;2023-08-21T05:23:24;21238.78;;;-141.84;77.10
15260;BME280;34462;51.368;12.364;2023-08-21T05:25:52;21301.81;;;-141.84;76.63
15260;BME280;34462;51.368;12.364;2023-08-21T05:28:21;21344.50;;;-141.84;76.19
15260;BME280;34462;51.368;12.364;2023-08-21T05:30:49;21419.72;;;-141.84;74.13
15260;BME280;34462;51.368;12.364;2023-08-21T05:33:18;21427.88;;;-141.84;73.59
15260;BME280;34462;51.368;12.364;2023-08-21T05:35:46;21431.94;;;-141.84;73.81
15260;BME280;34462;51.368;12.364;2023-08-21T05:38:16;21442.09;;;-141.84;73.84
15260;BME280;34462;51.368;12.364;2023-08-21T05:40:45;21427.88;;;-141.84;73.59
15260;BME280;34462;51.368;12.364;2023-08-21T05:43:13;21448.19;;;-141.84;74.20
15260;BME280;34462;51.368;12.364;2023-08-21T05:45:42;21438.03;;;-141.84;74.29
15260;BME280;34462;51.368;12.364;2023-08-21T05:48:10;21425.84;;;-141.84;74.04
15260;BME280;34462;51.368;12.364;2023-08-21T05:50:39;21482.75;;;-141.84;73.54
15260;BME280;34462;51.368;12.364;2023-08-21T05:53:07;21480.72;;;-141.84;73.34
15260;BME280;34462;51.368;12.364;2023-08-21T05:55:38;21513.25;;;-141.84;73.41
15260;BME280;34462;51.368;12.364;2023-08-21T05:58:07;21525.47;;;-141.84;73.22
15260;BME280;34462;51.368;12.364;2023-08-21T06:00:37;21578.31;;;-141.84;72.94
15260;BME280;34462;51.368;12.364;2023-08-21T06:03:06;21604.75;;;-141.84;72.07
15260;BME280;34462;51.368;12.364;2023-08-21T06:05:35;21616.97;;;-141.84;71.47
15260;BME280;34462;51.368;12.364;2023-08-21T06:08:04;21619.00;;;-141.84;71.69
15260;BME280;34462;51.368;12.364;2023-08-21T06:10:32;21690.16;;;-141.84;70.64
15260;BME280;34462;51.368;12.364;2023-08-21T06:13:02;21730.81;;;-141.84;70.34
15260;BME280;34462;51.368;12.364;2023-08-21T06:15:31;21795.88;;;-141.84;70.20
15260;BME280;34462;51.368;12.364;2023-08-21T06:18:00;21940.25;;;-141.84;68.23
15260;BME280;34462;51.368;12.364;2023-08-21T06:20:29;21928.06;;;-141.84;68.38
15260;BME280;34462;51.368;12.364;2023-08-21T06:22:57;21883.31;;;-141.84;68.68
15260;BME280;34462;51.368;12.364;2023-08-21T06:25:26;21976.88;;;-141.84;67.04
15260;BME280;34462;51.368;12.364;2023-08-21T06:27:55;21954.50;;;-141.84;67.33
15260;BME280;34462;51.368;12.364;2023-08-21T06:30:27;21879.25;;;-141.84;68.75
15260;BME280;34462;51.368;12.364;2023-08-21T06:32:56;21867.06;;;-141.84;69.22
15260;BME280;34462;51.368;12.364;2023-08-21T06:35:24;21938.22;;;-141.84;66.93
15260;BME280;34462;51.368;12.364;2023-08-21T06:37:53;21956.53;;;-141.84;66.81
15260;BME280;34462;51.368;12.364;2023-08-21T06:40:22;21948.41;;;-141.84;67.24
15260;BME280;34462;51.368;12.364;2023-08-21T06:42:51;21993.13;;;-141.84;67.43
15260;BME280;34462;51.368;12.364;2023-08-21T06:45:20;21999.25;;;-141.84;67.01
15260;BME280;34462;51.368;12.364;2023-08-21T06:47:49;22074.47;;;-141.84;66.89
15260;BME280;34462;51.368;12.364;2023-08-21T06:50:18;22066.34;;;-141.84;65.82
15260;BME280;34462;51.368;12.364;2023-08-21T06:52:47;22048.03;;;-141.84;66.09
15260;BME280;34462;51.368;12.364;2023-08-21T06:55:16;22133.44;;;-141.84;65.04
15260;BME280;34462;51.368;12.364;2023-08-21T06:57:44;22263.59;;;-141.84;63.47
15260;BME280;34462;51.368;12.364;2023-08-21T07:00:13;22302.25;;;-141.84;63.59
15260;BME280;34462;51.368;12.364;2023-08-21T07:02:42;22237.16;;;-141.84;64.15
15260;BME280;34462;51.368;12.364;2023-08-21T07:05:12;22202.59;;;-141.84;64.39
15260;BME280;34462;51.368;12.364;2023-08-21T07:07:41;22174.13;;;-141.84;65.09
15260;BME280;34462;51.368;12.364;2023-08-21T07:10:09;22174.13;;;-141.84;65.25
15260;BME280;34462;51.368;12.364;2023-08-21T07:12:39;22316.47;;;-141.84;63.72
15260;BME280;34462;51.368;12.364;2023-08-21T07:15:08;22355.13;;;-141.84;62.64
15260;BME280;34462;51.368;12.364;2023-08-21T07:17:37;22328.69;;;-141.84;63.15
15260;BME280;34462;51.368;12.364;2023-08-21T07:20:06;22312.41;;;-141.84;63.54
15260;BME280;34462;51.368;12.364;2023-08-21T07:22:37;22259.53;;;-141.84;64.69
15260;BME280;34462;51.368;12.364;2023-08-21T07:25:06;22137.50;;;-141.84;65.72
15260;BME280;34462;51.368;12.364;2023-08-21T07:27:35;22048.03;;;-141.84;67.29
15260;BME280;34462;51.368;12.364;2023-08-21T07:30:05;21970.78;;;-141.84;68.72
15260;BME280;34462;51.368;12.364;2023-08-21T07:32:34;21946.38;;;-141.84;69.79
15260;BME280;34462;51.368;12.364;2023-08-21T07:35:03;21869.09;;;-141.84;69.97
15260;BME280;34462;51.368;12.364;2023-08-21T07:37:32;21881.28;;;-141.84;70.53
15260;BME280;34462;51.368;12.364;2023-08-21T07:40:02;21852.81;;;-141.84;70.62
15260;BME280;34462;51.368;12.364;2023-08-21T07:42:32;21889.44;;;-141.84;70.48
15260;BME280;34462;51.368;12.364;2023-08-21T07:45:00;21895.53;;;-141.84;70.37
15260;BME280;34462;51.368;12.364;2023-08-21T07:47:29;21926.03;;;-141.84;69.93
15260;BME280;34462;51.368;12.364;2023-08-21T07:50:00;21930.09;;;-141.84;69.78
15260;BME280;34462;51.368;12.364;2023-08-21T07:52:28;21822.31;;;-141.84;70.80
15260;BME280;34462;51.368;12.364;2023-08-21T07:54:57;21808.09;;;-141.84;71.29
15260;BME280;34462;51.368;12.364;2023-08-21T07:57:29;21830.47;;;-141.84;71.11
15260;BME280;34462;51.368;12.364;2023-08-21T07:59:58;21761.31;;;-141.84;71.22
15260;BME280;34462;51.368;12.364;2023-08-21T08:02:26;21749.13;;;-141.84;71.14
15260;BME280;34462;51.368;12.364;2023-08-21T08:04:55;21700.31;;;-141.84;71.85
15260;BME280;34462;51.368;12.364;2023-08-21T08:07:24;21629.16;;;-141.84;73.08
15260;BME280;34462;51.368;12.364;2023-08-21T08:09:53;21566.13;;;-141.84;74.31
15260;BME280;34462;51.368;12.364;2023-08-21T08:12:22;21537.66;;;-141.84;75.01
15260;BME280;34462;51.368;12.364;2023-08-21T08:14:52;21566.13;;;-141.84;75.01
15260;BME280;34462;51.368;12.364;2023-08-21T08:17:20;21629.16;;;-141.84;74.54
15260;BME280;34462;51.368;12.364;2023-08-21T08:19:49;21633.22;;;-141.84;74.49
15260;BME280;34462;51.368;12.364;2023-08-21T08:22:17;21728.78;;;-141.84;72.57
15260;BME280;34462;51.368;12.364;2023-08-21T08:24:46;21747.09;;;-141.84;72.67
15260;BME280;34462;51.368;12.364;2023-08-21T08:27:14;21785.72;;;-141.84;72.36
15260;BME280;34462;51.368;12.364;2023-08-21T08:29:43;21810.13;;;-141.84;71.44
15260;BME280;34462;51.368;12.364;2023-08-21T08:32:13;21903.66;;;-141.84;70.59
15260;BME280;34462;51.368;12.364;2023-08-21T08:34:41;21952.47;;;-141.84;69.99
15260;BME280;34462;51.368;12.364;2023-08-21T08:37:13;22155.81;;;-141.84;66.63
15260;BME280;34462;51.368;12.364;2023-08-21T08:39:42;22306.31;;;-141.84;64.85
15260;BME280;34462;51.368;12.364;2023-08-21T08:42:11;22298.16;;;-141.84;64.87
15260;BME280;34462;51.368;12.364;2023-08-21T08:44:40;22318.50;;;-141.84;63.99
15260;BME280;34462;51.368;12.364;2023-08-21T08:47:09;22397.81;;;-141.84;62.92
15260;BME280;34462;51.368;12.364;2023-08-21T08:49:40;22424.25;;;-141.84;63.22
15260;BME280;34462;51.368;12.364;2023-08-21T08:52:10;22387.66;;;-141.84;62.28
15260;BME280;34462;51.368;12.364;2023-08-21T08:54:39;22359.19;;;-141.84;62.88
15260;BME280;34462;51.368;12.364;2023-08-21T08:57:08;22424.25;;;-141.84;62.59
15260;BME280;34462;51.368;12.364;2023-08-21T08:59:36;22346.97;;;-141.84;63.40
15260;BME280;34462;51.368;12.364;2023-08-21T09:02:05;22371.38;;;-141.84;63.64
15260;BME280;34462;51.368;12.364;2023-08-21T09:04:33;22298.16;;;-141.84;64.13
15260;BME280;34462;51.368;12.364;2023-08-21T09:07:10;22346.97;;;-141.84;64.50
15260;BME280;34462;51.368;12.364;2023-08-21T09:09:39;22385.63;;;-141.84;63.89
15260;BME280;34462;51.368;12.364;2023-08-21T09:12:10;22418.16;;;-141.84;63.35
15260;BME280;34462;51.368;12.364;2023-08-21T09:14:40;22344.94;;;-141.84;63.82
15260;BME280;34462;51.368;12.364;2023-08-21T09:17:08;22491.38;;;-141.84;62.67
15260;BME280;34462;51.368;12.364;2023-08-21T09:19:37;22442.56;;;-141.84;62.84
15260;BME280;34462;51.368;12.364;2023-08-21T09:25:55;22627.63;;;-141.84;60.94
15260;BME280;34462;51.368;12.364;2023-08-21T09:28:24;22668.31;;;-141.84;60.71
15260;BME280;34462;51.368;12.364;2023-08-21T09:34:40;22798.47;;;-141.84;57.33
15260;BME280;34462;51.368;12.364;2023-08-21T09:37:10;22814.75;;;-141.84;56.23
15260;BME280;34462;51.368;12.364;2023-08-21T09:39:39;22839.16;;;-141.84;56.35
15260;BME280;34462;51.368;12.364;2023-08-21T09:42:10;22814.75;;;-141.84;56.12
15260;BME280;34462;51.368;12.364;2023-08-21T09:44:39;22709.00;;;-141.84;56.87
15260;BME280;34462;51.368;12.364;2023-08-21T09:47:11;22698.81;;;-141.84;57.69
15260;BME280;34462;51.368;12.364;2023-08-21T09:49:40;22698.81;;;-141.84;55.07
15260;BME280;34462;51.368;12.364;2023-08-21T09:52:09;22690.69;;;-141.84;55.94
15260;BME280;34462;51.368;12.364;2023-08-21T09:54:39;22709.00;;;-141.84;56.46
15260;BME280;34462;51.368;12.364;2023-08-21T09:57:10;22778.16;;;-141.84;55.00
15260;BME280;34462;51.368;12.364;2023-08-21T09:59:41;22869.66;;;-141.84;53.84
15260;BME280;34462;51.368;12.364;2023-08-21T10:02:10;22900.19;;;-141.84;52.43
15260;BME280;34462;51.368;12.364;2023-08-21T10:04:40;22869.66;;;-141.84;53.26
15260;BME280;34462;51.368;12.364;2023-08-21T10:07:14;22885.94;;;-141.84;53.25
15260;BME280;34462;51.368;12.364;2023-08-21T10:13:27;22932.72;;;-141.84;50.84
15260;BME280;34462;51.368;12.364;2023-08-21T10:19:51;22869.66;;;-141.84;51.20
15260;BME280;34462;51.368;12.364;2023-08-21T10:22:36;22934.75;;;-141.84;50.56
15260;BME280;34462;51.368;12.364;2023-08-21T10:25:14;22922.56;;;-141.84;50.29
15260;BME280;34462;51.368;12.364;2023-08-21T10:27:44;22953.06;;;-141.84;49.80
15260;BME280;34462;51.368;12.364;2023-08-21T10:30:19;23014.09;;;-141.84;49.56
15260;BME280;34462;51.368;12.364;2023-08-21T10:32:49;23042.56;;;-141.84;48.15
15260;BME280;34462;51.368;12.364;2023-08-21T10:35:20;23046.63;;;-141.84;48.05
15260;BME280;34462;51.368;12.364;2023-08-21T10:38:08;23069.00;;;-141.84;47.53
15260;BME280;34462;51.368;12.364;2023-08-21T10:40:38;23091.38;;;-141.84;46.47
15260;BME280;34462;51.368;12.364;2023-08-21T10:43:38;23115.78;;;-141.84;45.56
15260;BME280;34462;51.368;12.364;2023-08-21T10:46:09;23099.50;;;-141.84;45.16
15260;BME280;34462;51.368;12.364;2023-08-21T10:48:38;23115.78;;;-141.84;45.07
15260;BME280;34462;51.368;12.364;2023-08-21T10:51:07;23146.28;;;-141.84;44.28
15260;BME280;34462;51.368;12.364;2023-08-21T10:53:36;23132.06;;;-141.84;43.75
15260;BME280;34462;51.368;12.364;2023-08-21T10:56:06;23132.06;;;-141.84;44.48
15260;BME280;34462;51.368;12.364;2023-08-21T10:58:37;23107.66;;;-141.84;44.68
15260;BME280;34462;51.368;12.364;2023-08-21T11:01:08;23132.06;;;-141.84;44.79
15260;BME280;34462;51.368;12.364;2023-08-21T11:03:39;23148.34;;;-141.84;44.79
15260;BME280;34462;51.368;12.364;2023-08-21T11:06:10;23168.69;;;-141.84;45.64
15260;BME280;34462;51.368;12.364;2023-08-21T11:08:39;23195.13;;;-141.84;44.74
15260;BME280;34462;51.368;12.364;2023-08-21T11:11:07;23241.91;;;-141.84;44.39
15260;BME280;34462;51.368;12.364;2023-08-21T11:13:36;23243.94;;;-141.84;45.04
15260;BME280;34462;51.368;12.364;2023-08-21T11:16:07;23186.97;;;-141.84;45.48
15260;BME280;34462;51.368;12.364;2023-08-21T11:18:37;23262.25;;;-141.84;45.05
15260;BME280;34462;51.368;12.364;2023-08-21T11:21:07;23270.38;;;-141.84;45.31
15260;BME280;34462;51.368;12.364;2023-08-21T11:23:39;23274.44;;;-141.84;45.38
15260;BME280;34462;51.368;12.364;2023-08-21T11:26:11;23262.25;;;-141.84;45.86
15260;BME280;34462;51.368;12.364;2023-08-21T11:28:42;23302.94;;;-141.84;45.50
15260;BME280;34462;51.368;12.364;2023-08-21T11:31:13;23307.00;;;-141.84;45.49
15260;BME280;34462;51.368;12.364;2023-08-21T11:33:41;23252.06;;;-141.84;46.10
15260;BME280;34462;51.368;12.364;2023-08-21T11:36:17;23276.47;;;-141.84;46.21
15260;BME280;34462;51.368;12.364;2023-08-21T11:38:58;23258.19;;;-141.84;46.44
15260;BME280;34462;51.368;12.364;2023-08-21T11:41:27;23341.56;;;-141.84;46.41
15260;BME280;34462;51.368;12.364;2023-08-21T11:44:02;23351.75;;;-141.84;45.83
15260;BME280;34462;51.368;12.364;2023-08-21T11:46:32;23400.56;;;-141.84;45.42
15260;BME280;34462;51.368;12.364;2023-08-21T11:49:03;23384.28;;;-141.84;45.67
15260;BME280;34462;51.368;12.364;2023-08-21T11:51:38;23309.03;;;-141.84;46.67
15260;BME280;34462;51.368;12.364;2023-08-21T11:54:07;23331.41;;;-141.84;46.37
15260;BME280;34462;51.368;12.364;2023-08-21T11:56:39;23347.69;;;-141.84;46.21
15260;BME280;34462;51.368;12.364;2023-08-21T11:59:08;23337.50;;;-141.84;46.21
15260;BME280;34462;51.368;12.364;2023-08-21T12:01:39;23366.00;;;-141.84;46.85
15260;BME280;34462;51.368;12.364;2023-08-21T12:04:14;23323.28;;;-141.84;47.12
15260;BME280;34462;51.368;12.364;2023-08-21T12:06:44;23374.13;;;-141.84;47.27
15260;BME280;34462;51.368;12.364;2023-08-21T12:09:13;23410.75;;;-141.84;47.14
15260;BME280;34462;51.368;12.364;2023-08-21T12:11:42;23420.91;;;-141.84;46.49
15260;BME280;34462;51.368;12.364;2023-08-21T12:14:10;23368.03;;;-141.84;46.79
15260;BME280;34462;51.368;12.364;2023-08-21T12:16:40;23331.41;;;-141.84;47.41
15260;BME280;34462;51.368;12.364;2023-08-21T12:19:09;23431.09;;;-141.84;46.53
15260;BME280;34462;51.368;12.364;2023-08-21T12:21:39;23357.84;;;-141.84;46.91
15260;BME280;34462;51.368;12.364;2023-08-21T12:24:08;23349.72;;;-141.84;47.06
15260;BME280;34462;51.368;12.364;2023-08-21T12:26:36;23404.63;;;-141.84;46.53
15260;BME280;34462;51.368;12.364;2023-08-21T12:29:16;23400.56;;;-141.84;46.47
15260;BME280;34462;51.368;12.364;2023-08-21T12:31:46;23424.97;;;-141.84;46.45
15260;BME280;34462;51.368;12.364;2023-08-21T12:34:15;23390.41;;;-141.84;46.66
15260;BME280;34462;51.368;12.364;2023-08-21T12:36:43;23443.28;;;-141.84;46.96
15260;BME280;34462;51.368;12.364;2023-08-21T12:39:12;23398.53;;;-141.84;47.43
15260;BME280;34462;51.368;12.364;2023-08-21T12:41:41;23394.47;;;-141.84;47.36
15260;BME280;34462;51.368;12.364;2023-08-21T12:44:10;23429.03;;;-141.84;46.44
15260;BME280;34462;51.368;12.364;2023-08-21T12:46:38;23437.19;;;-141.84;46.67
15260;BME280;34462;51.368;12.364;2023-08-21T12:49:08;23445.31;;;-141.84;46.71
15260;BME280;34462;51.368;12.364;2023-08-21T12:51:37;23427.00;;;-141.84;47.11
15260;BME280;34462;51.368;12.364;2023-08-21T12:54:05;23457.53;;;-141.84;46.67
15260;BME280;34462;51.368;12.364;2023-08-21T12:56:36;23477.88;;;-141.84;46.61
15260;BME280;34462;51.368;12.364;2023-08-21T12:59:06;23549.06;;;-141.84;46.17